Station: Macquarie Island  

  Atmospheric Gas Attenuation - ITU Rec 676-11   ----------------- dB/100km -----------------
Date Time Temp RH % AH g/m3 Dew Point Wind Direction Speed kph Gust kph Barometer mB Rainfall Since 9am 24GHz 47GHz 76GHz 122GHz 134GHz 241GHz
07/05 01:40 5.9 77 5.56 2.2 63 72 992.2 4.8 13.4 22.4 30.4 79.5 65.6 222.7
07/05 01:30 5.9 76 5.48 2 65 78 992 4.8 13.2 22.3 30.0 78.6 64.5 219.1
07/05 01:20 6.2 79 5.81 2.8 65 74 991.9 4.8 13.9 22.7 31.2 81.7 68.5 233.1
07/05 01:10 6.4 80 5.96 3.2 59 67 991.9 4.8 14.2 22.9 31.7 83.1 70.3 239.3
07/05 01:00 6.4 79 5.89 3 63 82 991.7 4.8 14.1 22.8 31.4 82.4 69.4 236.1
07/05 00:50 6.7 79 6.01 3.3 57 67 991.7 4.8 14.3 22.9 31.8 83.3 70.6 240.6
07/05 00:40 6.6 78 5.89 3 54 69 991.5 4.8 14.1 22.7 31.3 82.1 69.2 235.4
07/05 00:30 6.6 77 5.82 2.9 61 78 991.3 4.8 13.9 22.6 31.1 81.4 68.3 232.2
07/05 00:20 6.7 73 5.55 2.2 61 69 991.2 4.8 13.3 22.1 30.0 78.5 64.7 219.8
07/05 00:10 6.4 76 5.67 2.5 61 69 991.3 4.8 13.6 22.4 30.6 80.0 66.5 226.1
07/05 00:00 6.5 73 5.48 2 63 74 991.1 4.8 13.2 22.1 29.8 77.9 64.0 217.2
06/05 23:50 6.5 76 5.7 2.6 65 70 991 4.8 13.7 22.4 30.6 80.2 66.8 227.1
06/05 23:40 6.7 80 6.08 3.5 65 72 991 4.8 14.5 23.0 32.0 84.0 71.5 243.6
06/05 23:30 7.1 78 6.09 3.5 56 65 991 4.8 14.5 22.9 31.9 83.6 71.3 242.9
06/05 23:20 7.1 77 6.01 3.3 54 61 990.9 4.8 14.3 22.8 31.6 82.8 70.2 239.2
06/05 23:10 7 81 6.28 4 61 72 990.8 4.8 14.9 23.2 32.7 85.7 73.8 251.8
06/05 23:00 7.1 84 6.55 4.6 43 54 990.8 4.8 15.5 23.6 33.7 88.5 77.3 263.8
06/05 22:50 7.1 83 6.48 4.4 50 56 990.7 4.8 15.3 23.5 33.4 87.7 76.3 260.6
06/05 22:40 7 83 6.43 4.3 56 65 990.6 4.8 15.2 23.4 33.3 87.3 75.8 258.6
06/05 22:30 6.9 83 6.39 4.2 48 54 990.6 4.8 15.1 23.4 33.2 87.0 75.3 257.1
06/05 22:20 7 81 6.28 4 56 61 990.5 4.8 14.9 23.2 32.7 85.7 73.8 251.7
06/05 22:10 6.9 82 6.32 4 56 63 990.4 4.8 15.0 23.3 32.9 86.2 74.4 253.8
06/05 22:00 7 84 6.51 4.5 63 69 990.2 4.8 15.4 23.5 33.6 88.1 76.8 262.2
06/05 21:50 6.9 87 6.7 4.9 52 67 990.1 4.8 15.8 23.9 34.4 90.2 79.4 271.3
06/05 21:40 6.9 89 6.85 5.2 61 67 989.8 4.8 16.1 24.1 35.0 91.8 81.4 278.2
06/05 21:30 6.7 92 6.99 5.5 54 63 989.9 4.8 16.5 24.4 35.6 93.6 83.5 285.6
06/05 21:20 6.7 93 7.07 5.7 56 63 989.6 4.8 16.6 24.5 35.9 94.5 84.5 289.3
06/05 21:10 6.7 93 7.07 5.7 50 59 989.6 4.8 16.6 24.5 35.9 94.5 84.5 289.3
06/05 21:00 6.7 92 6.99 5.5 59 67 989.3 4.8 16.5 24.4 35.6 93.5 83.4 285.4
06/05 20:50 7.2 90 7.07 5.7 43 50 989.1 4.6 16.6 24.4 35.7 93.8 83.9 287.3
06/05 20:40 7.2 90 7.07 5.7 52 59 988.9 4.6 16.6 24.4 35.7 93.8 83.9 287.2
06/05 20:30 7.1 90 7.02 5.6 56 61 988.8 4.6 16.5 24.3 35.5 93.3 83.4 285.2
06/05 20:20 7.2 91 7.15 5.8 54 67 988.5 4.6 16.8 24.5 36.0 94.6 85.0 290.9
06/05 20:10 7.3 90 7.11 5.8 48 57 988.5 4.4 16.7 24.4 35.8 94.0 84.3 288.6
06/05 20:00 7.4 90 7.16 5.9 54 61 988.2 4.4 16.8 24.4 35.9 94.4 84.9 290.5
06/05 19:50 7.4 90 7.16 5.9 54 63 988.2 4.4 16.8 24.4 35.9 94.4 84.9 290.5
06/05 19:40 7.5 89 7.13 5.8 65 70 988 4.4 16.7 24.3 35.8 94.0 84.3 288.7
06/05 19:30 7.6 88 7.09 5.7 61 67 987.9 4.4 16.6 24.2 35.5 93.4 83.7 286.5
06/05 19:20 7.8 86 7.02 5.6 63 74 987.7 4.4 16.5 24.1 35.2 92.4 82.5 282.4
06/05 19:10 7.9 85 6.98 5.5 54 65 987.5 4.4 16.4 24.0 34.9 91.8 81.9 280.2
06/05 19:00 7.9 87 7.15 5.9 52 61 987.4 4.4 16.8 24.2 35.6 93.6 84.1 288.0
06/05 18:50 8.1 87 7.24 6.1 56 65 987.3 4.4 16.9 24.3 35.9 94.4 85.1 291.5
06/05 18:40 7.9 88 7.23 6 56 69 987.3 4.4 16.9 24.4 35.9 94.5 85.2 291.7
06/05 18:30 8 89 7.36 6.3 59 69 987.2 4.4 17.2 24.5 36.4 95.8 86.8 297.4
06/05 18:20 8.3 90 7.59 6.8 59 69 987.1 4.4 17.7 24.8 37.2 97.9 89.5 307.1
06/05 18:10 8 91 7.53 6.6 59 69 987 4.4 17.6 24.8 37.1 97.6 89.1 305.4
06/05 18:00 8 92 7.61 6.8 56 63 987 4.4 17.7 24.9 37.4 98.5 90.1 309.2
06/05 17:50 8 92 7.61 6.8 56 65 987.1 4.4 17.7 25.0 37.4 98.5 90.2 309.2
06/05 17:40 8 92 7.61 6.8 54 61 987.2 4.4 17.7 25.0 37.4 98.5 90.2 309.2
06/05 17:30 8.1 92 7.66 6.9 54 61 987.3 4.4 17.9 25.0 37.6 98.9 90.7 311.2
06/05 17:20 8.2 92 7.71 7 57 61 987.5 4.4 18.0 25.1 37.8 99.4 91.3 313.2
06/05 17:10 8.3 92 7.76 7.1 63 67 987.5 4.4 18.1 25.1 37.9 99.8 91.9 315.2
06/05 17:00 8 92 7.61 6.8 54 57 987.9 4.4 17.7 25.0 37.5 98.6 90.2 309.4
06/05 16:50 7.9 91 7.48 6.5 54 63 987.8 4.4 17.5 24.8 37.0 97.3 88.6 303.6
06/05 16:40 8.3 91 7.67 6.9 65 70 987.9 4.2 17.9 25.0 37.6 98.9 90.7 311.0
06/05 16:30 8.2 92 7.71 7 57 65 987.9 4.2 18.0 25.1 37.8 99.4 91.3 313.3
06/05 16:20 8.2 92 7.71 7 54 59 988.2 4.2 18.0 25.1 37.8 99.5 91.4 313.4
06/05 16:10 8.3 92 7.76 7.1 59 65 988.1 4.2 18.1 25.2 38.0 99.9 91.9 315.4
06/05 16:00 8.4 92 7.81 7.2 59 67 988.2 4.2 18.2 25.2 38.1 100.3 92.5 317.4
06/05 15:50 8.3 92 7.76 7.1 56 63 988.3 4.2 18.1 25.2 38.0 99.9 91.9 315.4
06/05 15:40 8.4 92 7.81 7.2 59 65 988.2 4.2 18.2 25.2 38.1 100.3 92.5 317.4
06/05 15:30 8.4 92 7.81 7.2 65 70 988.3 4.2 18.2 25.2 38.1 100.3 92.5 317.4
06/05 15:20 8.3 93 7.84 7.2 59 67 988.5 4.2 18.2 25.3 38.3 100.8 93.0 319.3
06/05 15:10 8.3 93 7.84 7.2 65 74 988.5 4.2 18.2 25.3 38.3 100.8 93.0 319.3
06/05 15:00 8.2 94 7.88 7.3 61 67 988.7 4.2 18.3 25.4 38.5 101.4 93.7 321.6
06/05 14:50 8.2 94 7.88 7.3 63 72 989 4.2 18.3 25.4 38.5 101.4 93.7 321.7
06/05 14:40 8.2 94 7.88 7.3 57 63 989 4.2 18.3 25.4 38.5 101.4 93.7 321.7
06/05 14:30 8.2 94 7.88 7.3 57 63 989 4.2 18.3 25.4 38.5 101.4 93.7 321.7
06/05 14:20 8.2 94 7.88 7.3 57 61 989.1 4.2 18.3 25.4 38.6 101.4 93.7 321.8
06/05 14:10 8.1 94 7.82 7.2 54 59 989.2 4.2 18.2 25.4 38.4 100.9 93.1 319.3
06/05 14:00 7.9 94 7.72 7 46 54 989.4 4.2 18.0 25.2 38.0 100.1 92.0 315.4
06/05 13:50 7.7 95 7.71 7 46 52 989.9 4.2 18.0 25.3 38.1 100.3 92.1 315.9
06/05 13:40 6.7 94 7.15 5.8 26 30 990.5 4.2 16.8 24.7 36.3 95.4 85.7 293.3
06/05 13:30 6.4 93 6.93 5.4 30 35 990.8 4.2 16.3 24.4 35.6 93.4 83.0 284.0
06/05 13:20 5.9 92 6.64 4.7 17 24 991.5 3.8 15.7 24.1 34.6 90.9 79.7 272.3
06/05 13:10 5.7 92 6.55 4.5 11 17 991.7 3 15.5 24.0 34.4 90.2 78.7 268.8
06/05 13:00 5.7 92 6.55 4.5 13 26 991.9 3 15.5 24.0 34.4 90.2 78.7 268.9
06/05 12:50 5.8 92 6.59 4.6 17 24 992.3 3 15.6 24.1 34.5 90.6 79.2 270.5
06/05 12:40 5.9 91 6.57 4.5 9 13 992.6 3 15.6 24.0 34.4 90.2 78.9 269.3
06/05 12:30 5.8 91 6.52 4.4 15 28 992.9 3 15.5 24.0 34.2 89.8 78.3 267.3
06/05 12:20 5.8 91 6.52 4.4 15 20 993.2 3 15.5 24.0 34.3 89.9 78.3 267.4
06/05 12:10 5.5 90 6.33 4 17 24 993.5 3 15.1 23.8 33.6 88.2 76.1 259.6
06/05 12:00 5.7 91 6.48 4.3 22 32 993.7 3 15.4 24.0 34.2 89.6 77.9 266.0
06/05 11:50 5.7 91 6.48 4.3 20 26 994.2 3 15.4 24.0 34.2 89.7 78.0 266.1
06/05 11:40 6.1 92 6.73 4.9 22 26 994.6 3 15.9 24.3 35.0 92.0 80.9 276.6
06/05 11:30 6.1 92 6.73 4.9 24 32 995 2.6 15.9 24.3 35.1 92.0 81.0 276.7
06/05 11:20 6 91 6.61 4.6 24 28 995.4 2.6 15.7 24.2 34.6 90.8 79.5 271.5
06/05 09:40 6 87 6.32 4 41 44 997.4 0.2 15.0 23.8 33.5 87.9 75.8 258.3
06/05 09:30 6.4 87 6.49 4.4 37 43 997.7 0.2 15.4 24.0 34.1 89.3 77.6 265.0
06/05 09:20 6.3 86 6.37 4.1 33 35 997.6 0 15.1 23.8 33.6 88.1 76.1 259.7
06/05 09:10 6.1 85 6.21 3.8 41 43 997.6 0 14.8 23.6 33.1 86.6 74.2 252.9
06/05 09:00 6.4 85 6.34 4.1 30 32 998 0 15.1 23.7 33.5 87.7 75.7 258.1
06/05 08:50 6.4 83 6.19 3.7 26 28 998.4 0.4 14.7 23.5 32.9 86.2 73.7 251.2
06/05 08:40 6.2 83 6.11 3.5 28 30 998.6 0.4 14.6 23.4 32.7 85.5 72.9 248.2
06/05 08:30 6.2 82 6.03 3.4 30 33 998.6 0.4 14.4 23.3 32.3 84.7 71.8 244.5
06/05 08:20 6.3 82 6.07 3.5 26 28 998.7 0.4 14.5 23.3 32.5 85.0 72.2 246.1
06/05 08:10 6.2 80 5.89 3 32 35 998.9 0.4 14.1 23.1 31.8 83.2 70.0 238.2
06/05 08:00 6.2 80 5.89 3 32 37 999.2 0.4 14.1 23.1 31.8 83.3 70.0 238.2
06/05 07:50 6.2 80 5.89 3 32 35 999.4 0.4 14.1 23.1 31.8 83.3 70.0 238.3
06/05 07:40 6.2 80 5.89 3 28 30 999.5 0.4 14.1 23.1 31.8 83.3 70.0 238.3

Last Refresh: 07-May-2026 01:18:10

Bureau of Meteorology